Terminal Aerodrome Forecast
Issued by NWS Medford, OR

Home | Current Version | Previous Version | Text Only | Print | Product List | Glossary On
Versions: 1 2 3 4 5 6 7 8 9 10 11 12
636
FTUS46 KMFR 040541
TAFMFR
TAF
KMFR 040541Z 0406/0506 33004KT P6SM VCSH SCT070 OVC120
     FM041800 32008KT P6SM -SHRA BKN040 OVC100
     FM050500 33006KT P6SM -SHRA BKN050 OVC100=

USA.gov is the U.S. government's official web portal to all federal, state and local government web resources and services.